Caselton, Nevada
Current Conditions -  °F | °C
As of 8:53 AM on Thursday 23 Oct 2014 (Local Time) from KELY Reporting Station
Clear Clear  
Wind Chill: 56°   Ceiling: Unl
Heat Index: 56°   Visibility: 10mi
Dew Point: 22°   Wind: 16mph
Humidity: 27%   Direction: 200°SSW
Pressure: 30.21"   Gusts: NA
Location:  38.2635°N, 114.484°W
Report Text: KELY 231553Z AUTO 20014KT 10SM CLR 13/M06 A3021 RMK AO2 SLP171 T01331056
Loading
Personal Weather Stations






























Interactive Weather Map
Tropical Storm Tracking
New forecast layout! Learn more

10-Day Weather Forecast

Advertisements
Track Severe Weather on mobile